sensor_id;sensor_type;location;lat;lon;timestamp;temperature;humidity
20349;DHT22;10332;50.208;18.988;2024-01-30T00:02:25;2.80;99.90
20349;DHT22;10332;50.208;18.988;2024-01-30T00:04:52;2.80;99.90
20349;DHT22;10332;50.208;18.988;2024-01-30T00:07:20;2.80;99.90
20349;DHT22;10332;50.208;18.988;2024-01-30T00:09:48;2.80;99.90
20349;DHT22;10332;50.208;18.988;2024-01-30T00:12:15;2.90;99.90
20349;DHT22;10332;50.208;18.988;2024-01-30T00:14:43;2.80;99.90
20349;DHT22;10332;50.208;18.988;2024-01-30T00:17:11;2.90;99.90
20349;DHT22;10332;50.208;18.988;2024-01-30T00:19:39;2.80;44.40
20349;DHT22;10332;50.208;18.988;2024-01-30T00:22:07;2.90;1.00
20349;DHT22;10332;50.208;18.988;2024-01-30T00:24:35;2.90;1.00
20349;DHT22;10332;50.208;18.988;2024-01-30T00:27:03;2.90;1.00
20349;DHT22;10332;50.208;18.988;2024-01-30T00:29:30;2.90;1.00
20349;DHT22;10332;50.208;18.988;2024-01-30T00:32:01;2.90;1.00
20349;DHT22;10332;50.208;18.988;2024-01-30T00:34:28;2.80;1.00
20349;DHT22;10332;50.208;18.988;2024-01-30T00:36:56;2.80;1.00
20349;DHT22;10332;50.208;18.988;2024-01-30T00:39:23;2.80;1.00
20349;DHT22;10332;50.208;18.988;2024-01-30T00:41:51;2.80;1.00
20349;DHT22;10332;50.208;18.988;2024-01-30T00:44:18;2.80;1.00
20349;DHT22;10332;50.208;18.988;2024-01-30T00:46:46;2.80;1.00
20349;DHT22;10332;50.208;18.988;2024-01-30T00:49:14;2.70;1.00
20349;DHT22;10332;50.208;18.988;2024-01-30T00:51:42;2.80;1.00
20349;DHT22;10332;50.208;18.988;2024-01-30T00:54:10;2.80;1.00
20349;DHT22;10332;50.208;18.988;2024-01-30T00:56:37;2.80;1.00
20349;DHT22;10332;50.208;18.988;2024-01-30T00:59:04;2.80;1.00
20349;DHT22;10332;50.208;18.988;2024-01-30T01:01:33;2.80;1.00
20349;DHT22;10332;50.208;18.988;2024-01-30T01:04:00;2.80;1.00
20349;DHT22;10332;50.208;18.988;2024-01-30T01:06:28;2.80;1.00
20349;DHT22;10332;50.208;18.988;2024-01-30T01:08:55;2.70;1.00
20349;DHT22;10332;50.208;18.988;2024-01-30T01:11:23;2.70;1.00
20349;DHT22;10332;50.208;18.988;2024-01-30T01:13:50;2.70;1.00
20349;DHT22;10332;50.208;18.988;2024-01-30T01:16:17;2.70;1.00
20349;DHT22;10332;50.208;18.988;2024-01-30T01:18:45;2.70;1.00
20349;DHT22;10332;50.208;18.988;2024-01-30T01:21:13;2.70;1.00
20349;DHT22;10332;50.208;18.988;2024-01-30T01:23:40;2.70;1.00
20349;DHT22;10332;50.208;18.988;2024-01-30T01:26:08;2.70;1.00
20349;DHT22;10332;50.208;18.988;2024-01-30T01:28:36;2.70;1.00
20349;DHT22;10332;50.208;18.988;2024-01-30T01:31:04;2.70;1.00
20349;DHT22;10332;50.208;18.988;2024-01-30T01:33:33;2.70;1.00
20349;DHT22;10332;50.208;18.988;2024-01-30T01:36:00;2.70;1.00
20349;DHT22;10332;50.208;18.988;2024-01-30T01:38:30;2.70;1.00
20349;DHT22;10332;50.208;18.988;2024-01-30T01:40:58;2.60;1.00
20349;DHT22;10332;50.208;18.988;2024-01-30T01:43:25;2.60;1.00
20349;DHT22;10332;50.208;18.988;2024-01-30T01:45:53;2.60;1.00
20349;DHT22;10332;50.208;18.988;2024-01-30T01:48:20;2.60;1.00
20349;DHT22;10332;50.208;18.988;2024-01-30T01:50:48;2.60;1.00
20349;DHT22;10332;50.208;18.988;2024-01-30T01:53:16;2.60;1.00
20349;DHT22;10332;50.208;18.988;2024-01-30T01:55:45;2.60;1.00
20349;DHT22;10332;50.208;18.988;2024-01-30T01:58:13;2.60;1.00
20349;DHT22;10332;50.208;18.988;2024-01-30T02:00:40;2.60;1.00
20349;DHT22;10332;50.208;18.988;2024-01-30T02:03:10;2.60;99.90
20349;DHT22;10332;50.208;18.988;2024-01-30T02:05:40;2.50;1.00
20349;DHT22;10332;50.208;18.988;2024-01-30T02:08:08;2.50;1.00
20349;DHT22;10332;50.208;18.988;2024-01-30T02:10:36;2.60;1.00
20349;DHT22;10332;50.208;18.988;2024-01-30T02:13:03;2.50;1.00
20349;DHT22;10332;50.208;18.988;2024-01-30T02:15:32;2.50;1.00
20349;DHT22;10332;50.208;18.988;2024-01-30T02:17:59;2.50;1.00
20349;DHT22;10332;50.208;18.988;2024-01-30T02:20:29;2.50;1.00
20349;DHT22;10332;50.208;18.988;2024-01-30T02:22:58;2.50;1.00
20349;DHT22;10332;50.208;18.988;2024-01-30T02:25:35;2.50;1.00
20349;DHT22;10332;50.208;18.988;2024-01-30T02:28:02;2.50;1.00
20349;DHT22;10332;50.208;18.988;2024-01-30T02:30:30;2.50;1.00
20349;DHT22;10332;50.208;18.988;2024-01-30T02:32:57;2.50;1.00
20349;DHT22;10332;50.208;18.988;2024-01-30T02:35:24;2.40;1.00
20349;DHT22;10332;50.208;18.988;2024-01-30T02:37:52;2.40;1.00
20349;DHT22;10332;50.208;18.988;2024-01-30T02:40:19;2.40;1.00
20349;DHT22;10332;50.208;18.988;2024-01-30T02:42:47;2.40;9.10
20349;DHT22;10332;50.208;18.988;2024-01-30T02:45:14;2.40;1.00
20349;DHT22;10332;50.208;18.988;2024-01-30T02:47:41;2.40;78.50
20349;DHT22;10332;50.208;18.988;2024-01-30T02:50:09;2.40;99.90
20349;DHT22;10332;50.208;18.988;2024-01-30T02:52:37;2.40;99.90
20349;DHT22;10332;50.208;18.988;2024-01-30T02:55:05;2.40;37.30
20349;DHT22;10332;50.208;18.988;2024-01-30T02:57:32;2.40;99.90
20349;DHT22;10332;50.208;18.988;2024-01-30T03:00:00;2.40;99.90
20349;DHT22;10332;50.208;18.988;2024-01-30T03:02:27;2.40;85.10
20349;DHT22;10332;50.208;18.988;2024-01-30T03:04:55;2.40;83.40
20349;DHT22;10332;50.208;18.988;2024-01-30T03:07:22;2.30;58.30
20349;DHT22;10332;50.208;18.988;2024-01-30T03:09:50;2.30;99.90
20349;DHT22;10332;50.208;18.988;2024-01-30T03:12:17;2.30;95.40
20349;DHT22;10332;50.208;18.988;2024-01-30T03:14:44;2.30;99.90
20349;DHT22;10332;50.208;18.988;2024-01-30T03:17:12;2.20;99.90
20349;DHT22;10332;50.208;18.988;2024-01-30T03:19:39;2.20;99.90
20349;DHT22;10332;50.208;18.988;2024-01-30T03:22:07;2.20;99.90
20349;DHT22;10332;50.208;18.988;2024-01-30T03:24:34;2.20;99.90
20349;DHT22;10332;50.208;18.988;2024-01-30T03:27:01;2.20;1.00
20349;DHT22;10332;50.208;18.988;2024-01-30T03:29:29;2.20;1.00
20349;DHT22;10332;50.208;18.988;2024-01-30T03:31:56;2.20;1.00
20349;DHT22;10332;50.208;18.988;2024-01-30T03:34:24;2.20;1.00
20349;DHT22;10332;50.208;18.988;2024-01-30T03:36:51;2.20;1.00
20349;DHT22;10332;50.208;18.988;2024-01-30T03:39:18;2.20;1.00
20349;DHT22;10332;50.208;18.988;2024-01-30T03:41:46;2.20;1.00
20349;DHT22;10332;50.208;18.988;2024-01-30T03:44:13;2.20;1.00
20349;DHT22;10332;50.208;18.988;2024-01-30T03:46:40;2.20;1.00
20349;DHT22;10332;50.208;18.988;2024-01-30T03:49:09;2.20;1.00
20349;DHT22;10332;50.208;18.988;2024-01-30T03:51:36;2.20;1.00
20349;DHT22;10332;50.208;18.988;2024-01-30T03:54:03;2.20;1.00
20349;DHT22;10332;50.208;18.988;2024-01-30T03:56:31;2.20;1.00
20349;DHT22;10332;50.208;18.988;2024-01-30T03:58:58;2.20;1.00
20349;DHT22;10332;50.208;18.988;2024-01-30T04:01:27;2.20;1.00
20349;DHT22;10332;50.208;18.988;2024-01-30T04:03:55;2.30;1.00
20349;DHT22;10332;50.208;18.988;2024-01-30T04:06:22;2.30;1.00
20349;DHT22;10332;50.208;18.988;2024-01-30T04:08:49;2.30;1.00
20349;DHT22;10332;50.208;18.988;2024-01-30T04:11:18;2.30;1.00
20349;DHT22;10332;50.208;18.988;2024-01-30T04:13:47;2.30;1.00
20349;DHT22;10332;50.208;18.988;2024-01-30T04:16:22;2.30;1.00
20349;DHT22;10332;50.208;18.988;2024-01-30T04:18:51;2.30;1.00
20349;DHT22;10332;50.208;18.988;2024-01-30T04:21:20;2.30;1.00
20349;DHT22;10332;50.208;18.988;2024-01-30T04:23:47;2.20;1.00
20349;DHT22;10332;50.208;18.988;2024-01-30T04:26:15;2.20;1.00
20349;DHT22;10332;50.208;18.988;2024-01-30T04:28:44;2.30;1.00
20349;DHT22;10332;50.208;18.988;2024-01-30T04:31:12;2.20;1.00
20349;DHT22;10332;50.208;18.988;2024-01-30T04:33:40;2.20;1.00
20349;DHT22;10332;50.208;18.988;2024-01-30T04:36:08;2.20;1.00
20349;DHT22;10332;50.208;18.988;2024-01-30T04:38:39;2.20;1.00
20349;DHT22;10332;50.208;18.988;2024-01-30T04:41:06;2.20;1.00
20349;DHT22;10332;50.208;18.988;2024-01-30T04:43:34;2.20;1.00
20349;DHT22;10332;50.208;18.988;2024-01-30T04:46:01;2.20;1.00
20349;DHT22;10332;50.208;18.988;2024-01-30T04:48:29;2.20;1.00
20349;DHT22;10332;50.208;18.988;2024-01-30T04:50:56;2.20;1.00
20349;DHT22;10332;50.208;18.988;2024-01-30T04:53:24;2.20;1.00
20349;DHT22;10332;50.208;18.988;2024-01-30T04:55:51;2.20;1.00
20349;DHT22;10332;50.208;18.988;2024-01-30T04:58:19;2.10;1.00
20349;DHT22;10332;50.208;18.988;2024-01-30T05:00:46;2.20;1.00
20349;DHT22;10332;50.208;18.988;2024-01-30T05:03:22;2.10;1.00
20349;DHT22;10332;50.208;18.988;2024-01-30T05:05:50;2.10;1.00
20349;DHT22;10332;50.208;18.988;2024-01-30T05:08:18;2.20;1.00
20349;DHT22;10332;50.208;18.988;2024-01-30T05:10:45;2.10;1.00
20349;DHT22;10332;50.208;18.988;2024-01-30T05:13:13;2.10;1.00
20349;DHT22;10332;50.208;18.988;2024-01-30T05:15:41;2.10;1.00
20349;DHT22;10332;50.208;18.988;2024-01-30T05:18:08;2.10;1.00
20349;DHT22;10332;50.208;18.988;2024-01-30T05:20:36;2.20;99.90
20349;DHT22;10332;50.208;18.988;2024-01-30T05:23:03;2.10;99.90
20349;DHT22;10332;50.208;18.988;2024-01-30T05:25:30;2.10;99.90
20349;DHT22;10332;50.208;18.988;2024-01-30T05:27:58;2.10;99.90
20349;DHT22;10332;50.208;18.988;2024-01-30T05:30:25;2.20;99.90
20349;DHT22;10332;50.208;18.988;2024-01-30T05:32:53;2.10;99.90
20349;DHT22;10332;50.208;18.988;2024-01-30T05:35:20;2.10;99.90
20349;DHT22;10332;50.208;18.988;2024-01-30T05:37:48;2.10;99.90
20349;DHT22;10332;50.208;18.988;2024-01-30T05:40:17;2.00;99.90
20349;DHT22;10332;50.208;18.988;2024-01-30T05:42:44;2.00;99.90
20349;DHT22;10332;50.208;18.988;2024-01-30T05:45:11;2.00;99.90
20349;DHT22;10332;50.208;18.988;2024-01-30T05:47:39;2.00;99.90
20349;DHT22;10332;50.208;18.988;2024-01-30T05:50:07;2.00;99.90
20349;DHT22;10332;50.208;18.988;2024-01-30T05:52:34;2.00;99.90
20349;DHT22;10332;50.208;18.988;2024-01-30T05:55:02;2.00;99.90
20349;DHT22;10332;50.208;18.988;2024-01-30T05:57:30;2.00;99.90
20349;DHT22;10332;50.208;18.988;2024-01-30T05:59:58;1.90;99.90
20349;DHT22;10332;50.208;18.988;2024-01-30T06:02:25;1.90;99.90
20349;DHT22;10332;50.208;18.988;2024-01-30T06:04:52;1.90;99.90
20349;DHT22;10332;50.208;18.988;2024-01-30T06:07:20;1.90;99.90
20349;DHT22;10332;50.208;18.988;2024-01-30T06:09:47;1.90;99.90
20349;DHT22;10332;50.208;18.988;2024-01-30T06:12:15;1.90;99.90
20349;DHT22;10332;50.208;18.988;2024-01-30T06:14:42;1.90;99.90
20349;DHT22;10332;50.208;18.988;2024-01-30T06:17:13;1.90;99.90
20349;DHT22;10332;50.208;18.988;2024-01-30T06:19:40;1.90;99.90
20349;DHT22;10332;50.208;18.988;2024-01-30T06:22:09;1.90;99.90
20349;DHT22;10332;50.208;18.988;2024-01-30T06:24:36;1.90;99.90
20349;DHT22;10332;50.208;18.988;2024-01-30T06:27:03;2.00;99.90
20349;DHT22;10332;50.208;18.988;2024-01-30T06:29:31;2.00;28.90
20349;DHT22;10332;50.208;18.988;2024-01-30T06:31:59;2.10;1.00
20349;DHT22;10332;50.208;18.988;2024-01-30T06:34:26;2.10;1.00
20349;DHT22;10332;50.208;18.988;2024-01-30T06:36:54;2.10;1.00
20349;DHT22;10332;50.208;18.988;2024-01-30T06:39:21;2.10;1.00
20349;DHT22;10332;50.208;18.988;2024-01-30T06:41:48;2.10;1.00
20349;DHT22;10332;50.208;18.988;2024-01-30T06:44:17;2.10;1.00
20349;DHT22;10332;50.208;18.988;2024-01-30T06:46:45;2.20;1.00
20349;DHT22;10332;50.208;18.988;2024-01-30T06:49:12;2.30;1.00
20349;DHT22;10332;50.208;18.988;2024-01-30T06:51:39;2.40;1.00
20349;DHT22;10332;50.208;18.988;2024-01-30T06:54:06;2.50;99.90
20349;DHT22;10332;50.208;18.988;2024-01-30T06:56:34;2.50;1.00
20349;DHT22;10332;50.208;18.988;2024-01-30T06:59:02;2.60;1.00
20349;DHT22;10332;50.208;18.988;2024-01-30T07:01:30;2.60;99.90
20349;DHT22;10332;50.208;18.988;2024-01-30T07:03:57;2.60;99.90
20349;DHT22;10332;50.208;18.988;2024-01-30T07:06:25;2.60;99.90
20349;DHT22;10332;50.208;18.988;2024-01-30T07:08:53;2.50;99.90
20349;DHT22;10332;50.208;18.988;2024-01-30T07:11:21;2.50;99.90
20349;DHT22;10332;50.208;18.988;2024-01-30T07:13:50;2.60;99.90
20349;DHT22;10332;50.208;18.988;2024-01-30T07:16:18;2.60;82.70
20349;DHT22;10332;50.208;18.988;2024-01-30T07:18:45;2.60;87.70
20349;DHT22;10332;50.208;18.988;2024-01-30T07:21:14;2.60;24.70
20349;DHT22;10332;50.208;18.988;2024-01-30T07:23:41;2.60;32.10
20349;DHT22;10332;50.208;18.988;2024-01-30T07:26:09;2.60;15.50
20349;DHT22;10332;50.208;18.988;2024-01-30T07:28:36;2.60;1.00
20349;DHT22;10332;50.208;18.988;2024-01-30T07:31:04;2.70;1.00
20349;DHT22;10332;50.208;18.988;2024-01-30T07:33:33;2.70;1.00
20349;DHT22;10332;50.208;18.988;2024-01-30T07:36:01;2.80;1.00
20349;DHT22;10332;50.208;18.988;2024-01-30T07:38:31;2.80;1.00
20349;DHT22;10332;50.208;18.988;2024-01-30T07:40:58;2.90;1.00
20349;DHT22;10332;50.208;18.988;2024-01-30T07:43:26;3.00;1.00
20349;DHT22;10332;50.208;18.988;2024-01-30T07:45:53;3.00;1.00
20349;DHT22;10332;50.208;18.988;2024-01-30T07:48:22;3.10;1.00
20349;DHT22;10332;50.208;18.988;2024-01-30T07:50:50;3.20;1.00
20349;DHT22;10332;50.208;18.988;2024-01-30T07:53:17;3.20;1.00
20349;DHT22;10332;50.208;18.988;2024-01-30T07:55:46;3.30;1.00
20349;DHT22;10332;50.208;18.988;2024-01-30T07:58:13;3.30;99.90
20349;DHT22;10332;50.208;18.988;2024-01-30T08:00:41;3.40;99.90
20349;DHT22;10332;50.208;18.988;2024-01-30T08:03:08;3.40;99.90
20349;DHT22;10332;50.208;18.988;2024-01-30T08:05:36;3.50;99.90
20349;DHT22;10332;50.208;18.988;2024-01-30T08:08:03;3.50;99.90
20349;DHT22;10332;50.208;18.988;2024-01-30T08:10:31;3.60;99.90
20349;DHT22;10332;50.208;18.988;2024-01-30T08:12:58;3.60;99.90
20349;DHT22;10332;50.208;18.988;2024-01-30T08:15:26;3.70;99.90
20349;DHT22;10332;50.208;18.988;2024-01-30T08:17:53;3.70;99.90
20349;DHT22;10332;50.208;18.988;2024-01-30T08:20:25;3.80;99.90
20349;DHT22;10332;50.208;18.988;2024-01-30T08:22:52;3.90;19.90
20349;DHT22;10332;50.208;18.988;2024-01-30T08:25:20;3.90;1.00
20349;DHT22;10332;50.208;18.988;2024-01-30T08:27:48;4.00;1.00
20349;DHT22;10332;50.208;18.988;2024-01-30T08:30:16;4.00;1.00
20349;DHT22;10332;50.208;18.988;2024-01-30T08:32:43;4.10;1.00
20349;DHT22;10332;50.208;18.988;2024-01-30T08:35:11;4.20;1.00
20349;DHT22;10332;50.208;18.988;2024-01-30T08:37:41;4.30;1.00
20349;DHT22;10332;50.208;18.988;2024-01-30T08:40:08;4.40;1.00
20349;DHT22;10332;50.208;18.988;2024-01-30T08:42:36;4.70;1.00
20349;DHT22;10332;50.208;18.988;2024-01-30T08:45:04;5.00;1.00
20349;DHT22;10332;50.208;18.988;2024-01-30T08:47:31;5.50;1.00
20349;DHT22;10332;50.208;18.988;2024-01-30T08:50:00;8.10;99.90
20349;DHT22;10332;50.208;18.988;2024-01-30T08:52:28;11.50;99.90
20349;DHT22;10332;50.208;18.988;2024-01-30T08:54:56;14.30;99.90
20349;DHT22;10332;50.208;18.988;2024-01-30T08:57:23;16.50;69.50
20349;DHT22;10332;50.208;18.988;2024-01-30T08:59:50;18.30;16.50
20349;DHT22;10332;50.208;18.988;2024-01-30T09:02:18;19.80;1.00
20349;DHT22;10332;50.208;18.988;2024-01-30T09:04:45;21.00;1.00
20349;DHT22;10332;50.208;18.988;2024-01-30T09:07:13;21.90;1.00
20349;DHT22;10332;50.208;18.988;2024-01-30T09:09:41;22.90;1.00
20349;DHT22;10332;50.208;18.988;2024-01-30T09:12:09;23.40;1.00
20349;DHT22;10332;50.208;18.988;2024-01-30T09:14:39;24.00;1.00
20349;DHT22;10332;50.208;18.988;2024-01-30T09:17:08;24.80;1.00
20349;DHT22;10332;50.208;18.988;2024-01-30T09:19:36;25.10;1.00
20349;DHT22;10332;50.208;18.988;2024-01-30T09:22:04;25.40;1.00
20349;DHT22;10332;50.208;18.988;2024-01-30T09:24:31;25.90;1.00
20349;DHT22;10332;50.208;18.988;2024-01-30T09:26:59;26.50;1.00
20349;DHT22;10332;50.208;18.988;2024-01-30T09:29:26;27.20;1.00
20349;DHT22;10332;50.208;18.988;2024-01-30T09:31:54;28.10;1.00
20349;DHT22;10332;50.208;18.988;2024-01-30T09:34:21;28.80;1.00
20349;DHT22;10332;50.208;18.988;2024-01-30T09:36:49;29.20;1.00
20349;DHT22;10332;50.208;18.988;2024-01-30T09:39:16;29.80;1.00
20349;DHT22;10332;50.208;18.988;2024-01-30T09:42:00;30.30;1.00
20349;DHT22;10332;50.208;18.988;2024-01-30T09:44:29;30.90;1.00
20349;DHT22;10332;50.208;18.988;2024-01-30T09:46:57;31.50;1.00
20349;DHT22;10332;50.208;18.988;2024-01-30T09:49:34;31.40;1.00
20349;DHT22;10332;50.208;18.988;2024-01-30T09:52:03;31.20;1.00
20349;DHT22;10332;50.208;18.988;2024-01-30T09:54:30;30.90;1.00
20349;DHT22;10332;50.208;18.988;2024-01-30T09:57:03;30.90;1.00
20349;DHT22;10332;50.208;18.988;2024-01-30T09:59:32;31.10;1.00
20349;DHT22;10332;50.208;18.988;2024-01-30T10:02:00;31.30;1.00
20349;DHT22;10332;50.208;18.988;2024-01-30T10:04:28;31.50;1.00
20349;DHT22;10332;50.208;18.988;2024-01-30T10:06:56;31.80;1.00
20349;DHT22;10332;50.208;18.988;2024-01-30T10:09:26;32.20;1.00
20349;DHT22;10332;50.208;18.988;2024-01-30T10:11:53;32.20;1.00
20349;DHT22;10332;50.208;18.988;2024-01-30T10:14:21;32.70;1.00
20349;DHT22;10332;50.208;18.988;2024-01-30T10:16:48;32.90;1.00
20349;DHT22;10332;50.208;18.988;2024-01-30T10:19:15;33.10;1.00
20349;DHT22;10332;50.208;18.988;2024-01-30T10:21:43;33.50;1.00
20349;DHT22;10332;50.208;18.988;2024-01-30T10:24:10;33.80;1.00
20349;DHT22;10332;50.208;18.988;2024-01-30T10:26:39;34.30;1.00
20349;DHT22;10332;50.208;18.988;2024-01-30T10:29:07;34.70;1.00
20349;DHT22;10332;50.208;18.988;2024-01-30T10:31:34;35.40;1.00
20349;DHT22;10332;50.208;18.988;2024-01-30T10:34:02;36.10;1.00
20349;DHT22;10332;50.208;18.988;2024-01-30T10:36:46;36.20;1.00
20349;DHT22;10332;50.208;18.988;2024-01-30T10:39:17;36.50;1.00
20349;DHT22;10332;50.208;18.988;2024-01-30T10:41:47;36.50;1.00
20349;DHT22;10332;50.208;18.988;2024-01-30T10:44:19;36.80;1.00
20349;DHT22;10332;50.208;18.988;2024-01-30T10:46:55;36.90;1.00
20349;DHT22;10332;50.208;18.988;2024-01-30T10:49:24;36.90;1.00
20349;DHT22;10332;50.208;18.988;2024-01-30T10:51:52;37.00;1.00
20349;DHT22;10332;50.208;18.988;2024-01-30T10:54:21;37.00;1.00
20349;DHT22;10332;50.208;18.988;2024-01-30T10:56:50;36.80;1.00
20349;DHT22;10332;50.208;18.988;2024-01-30T10:59:18;36.70;1.00
20349;DHT22;10332;50.208;18.988;2024-01-30T11:01:46;36.80;1.00
20349;DHT22;10332;50.208;18.988;2024-01-30T11:04:13;36.70;1.00
20349;DHT22;10332;50.208;18.988;2024-01-30T11:06:42;36.30;1.00
20349;DHT22;10332;50.208;18.988;2024-01-30T11:09:11;36.20;1.00
20349;DHT22;10332;50.208;18.988;2024-01-30T11:11:56;36.20;1.00
20349;DHT22;10332;50.208;18.988;2024-01-30T11:14:29;35.90;1.00
20349;DHT22;10332;50.208;18.988;2024-01-30T11:16:58;35.50;1.00
20349;DHT22;10332;50.208;18.988;2024-01-30T11:19:27;35.70;1.00
20349;DHT22;10332;50.208;18.988;2024-01-30T11:21:55;35.90;1.00
20349;DHT22;10332;50.208;18.988;2024-01-30T11:24:24;36.10;1.00
20349;DHT22;10332;50.208;18.988;2024-01-30T11:26:59;36.30;1.00
20349;DHT22;10332;50.208;18.988;2024-01-30T11:29:28;36.60;1.00
20349;DHT22;10332;50.208;18.988;2024-01-30T11:31:59;36.70;1.00
20349;DHT22;10332;50.208;18.988;2024-01-30T11:34:27;36.90;1.00
20349;DHT22;10332;50.208;18.988;2024-01-30T11:36:59;37.30;1.00
20349;DHT22;10332;50.208;18.988;2024-01-30T11:39:29;37.20;1.00
20349;DHT22;10332;50.208;18.988;2024-01-30T11:41:57;37.10;1.00
20349;DHT22;10332;50.208;18.988;2024-01-30T11:44:25;37.20;1.00
20349;DHT22;10332;50.208;18.988;2024-01-30T11:46:53;37.00;1.00
20349;DHT22;10332;50.208;18.988;2024-01-30T11:49:20;36.60;1.00
20349;DHT22;10332;50.208;18.988;2024-01-30T11:51:48;36.50;1.00
20349;DHT22;10332;50.208;18.988;2024-01-30T11:54:16;36.30;1.00
20349;DHT22;10332;50.208;18.988;2024-01-30T11:56:44;36.40;1.00
20349;DHT22;10332;50.208;18.988;2024-01-30T11:59:11;36.50;1.00
20349;DHT22;10332;50.208;18.988;2024-01-30T12:01:39;36.40;1.00
20349;DHT22;10332;50.208;18.988;2024-01-30T12:04:06;36.60;1.00
20349;DHT22;10332;50.208;18.988;2024-01-30T12:06:38;36.80;1.00
20349;DHT22;10332;50.208;18.988;2024-01-30T12:09:06;37.10;1.00
20349;DHT22;10332;50.208;18.988;2024-01-30T12:11:48;37.10;1.00
20349;DHT22;10332;50.208;18.988;2024-01-30T12:14:17;36.70;1.00
20349;DHT22;10332;50.208;18.988;2024-01-30T12:16:48;36.30;1.00
20349;DHT22;10332;50.208;18.988;2024-01-30T12:19:24;35.90;1.00
20349;DHT22;10332;50.208;18.988;2024-01-30T12:21:56;35.60;1.00
20349;DHT22;10332;50.208;18.988;2024-01-30T12:24:27;35.40;1.00
20349;DHT22;10332;50.208;18.988;2024-01-30T12:26:59;35.50;1.00
20349;DHT22;10332;50.208;18.988;2024-01-30T12:29:26;35.50;1.00
20349;DHT22;10332;50.208;18.988;2024-01-30T12:32:01;35.60;1.00
20349;DHT22;10332;50.208;18.988;2024-01-30T12:34:28;35.90;1.00
20349;DHT22;10332;50.208;18.988;2024-01-30T12:36:58;36.40;1.00
20349;DHT22;10332;50.208;18.988;2024-01-30T12:39:25;36.40;1.00
20349;DHT22;10332;50.208;18.988;2024-01-30T12:41:53;36.10;1.00
20349;DHT22;10332;50.208;18.988;2024-01-30T12:44:20;35.80;1.00
20349;DHT22;10332;50.208;18.988;2024-01-30T12:46:48;35.80;1.00
20349;DHT22;10332;50.208;18.988;2024-01-30T12:49:15;35.50;1.00
20349;DHT22;10332;50.208;18.988;2024-01-30T12:51:43;35.30;1.00
20349;DHT22;10332;50.208;18.988;2024-01-30T12:54:12;35.10;1.00
20349;DHT22;10332;50.208;18.988;2024-01-30T12:56:40;35.10;1.00
20349;DHT22;10332;50.208;18.988;2024-01-30T12:59:07;35.10;1.00
20349;DHT22;10332;50.208;18.988;2024-01-30T13:01:35;34.90;1.00
20349;DHT22;10332;50.208;18.988;2024-01-30T13:04:02;34.70;1.00
20349;DHT22;10332;50.208;18.988;2024-01-30T13:06:30;34.60;1.00
20349;DHT22;10332;50.208;18.988;2024-01-30T13:08:57;34.30;1.00
20349;DHT22;10332;50.208;18.988;2024-01-30T13:11:25;34.10;1.00
20349;DHT22;10332;50.208;18.988;2024-01-30T13:13:53;33.90;1.00
20349;DHT22;10332;50.208;18.988;2024-01-30T13:16:20;33.80;1.00
20349;DHT22;10332;50.208;18.988;2024-01-30T13:18:48;33.80;1.00
20349;DHT22;10332;50.208;18.988;2024-01-30T13:21:15;33.50;1.00
20349;DHT22;10332;50.208;18.988;2024-01-30T13:23:42;33.20;1.00
20349;DHT22;10332;50.208;18.988;2024-01-30T13:26:10;33.10;1.00
20349;DHT22;10332;50.208;18.988;2024-01-30T13:28:38;33.10;1.00
20349;DHT22;10332;50.208;18.988;2024-01-30T13:31:05;33.50;1.00
20349;DHT22;10332;50.208;18.988;2024-01-30T13:33:33;33.90;1.00
20349;DHT22;10332;50.208;18.988;2024-01-30T13:36:01;34.30;1.00
20349;DHT22;10332;50.208;18.988;2024-01-30T13:38:28;34.40;1.00
20349;DHT22;10332;50.208;18.988;2024-01-30T13:40:56;34.00;1.00
20349;DHT22;10332;50.208;18.988;2024-01-30T13:43:25;33.80;1.00
20349;DHT22;10332;50.208;18.988;2024-01-30T13:45:53;33.40;1.00
20349;DHT22;10332;50.208;18.988;2024-01-30T13:48:20;32.70;1.00
20349;DHT22;10332;50.208;18.988;2024-01-30T13:50:48;32.60;1.00
20349;DHT22;10332;50.208;18.988;2024-01-30T13:53:17;32.70;1.00
20349;DHT22;10332;50.208;18.988;2024-01-30T13:55:45;32.80;1.00
20349;DHT22;10332;50.208;18.988;2024-01-30T13:58:12;33.00;1.00
20349;DHT22;10332;50.208;18.988;2024-01-30T14:00:40;32.90;1.00
20349;DHT22;10332;50.208;18.988;2024-01-30T14:03:07;32.50;1.00
20349;DHT22;10332;50.208;18.988;2024-01-30T14:05:35;32.10;1.00
20349;DHT22;10332;50.208;18.988;2024-01-30T14:08:03;31.70;1.00
20349;DHT22;10332;50.208;18.988;2024-01-30T14:10:31;31.40;1.00
20349;DHT22;10332;50.208;18.988;2024-01-30T14:12:58;31.20;1.00
20349;DHT22;10332;50.208;18.988;2024-01-30T14:15:26;31.00;1.00
20349;DHT22;10332;50.208;18.988;2024-01-30T14:17:55;31.10;1.00
20349;DHT22;10332;50.208;18.988;2024-01-30T14:20:25;30.60;1.00
20349;DHT22;10332;50.208;18.988;2024-01-30T14:22:52;30.30;1.00
20349;DHT22;10332;50.208;18.988;2024-01-30T14:25:23;30.10;1.00
20349;DHT22;10332;50.208;18.988;2024-01-30T14:27:51;29.90;1.00
20349;DHT22;10332;50.208;18.988;2024-01-30T14:30:19;29.70;1.00
20349;DHT22;10332;50.208;18.988;2024-01-30T14:32:46;29.60;1.00
20349;DHT22;10332;50.208;18.988;2024-01-30T14:35:14;29.20;1.00
20349;DHT22;10332;50.208;18.988;2024-01-30T14:37:42;28.70;1.00
20349;DHT22;10332;50.208;18.988;2024-01-30T14:40:09;28.00;1.00
20349;DHT22;10332;50.208;18.988;2024-01-30T14:42:37;27.70;1.00
20349;DHT22;10332;50.208;18.988;2024-01-30T14:45:06;27.50;1.00
20349;DHT22;10332;50.208;18.988;2024-01-30T14:47:34;27.20;1.00
20349;DHT22;10332;50.208;18.988;2024-01-30T14:50:04;27.00;1.00
20349;DHT22;10332;50.208;18.988;2024-01-30T14:52:35;26.70;1.00
20349;DHT22;10332;50.208;18.988;2024-01-30T14:55:04;26.10;1.00
20349;DHT22;10332;50.208;18.988;2024-01-30T14:57:31;25.60;1.00
20349;DHT22;10332;50.208;18.988;2024-01-30T14:59:59;25.30;1.00
20349;DHT22;10332;50.208;18.988;2024-01-30T15:02:26;24.70;1.00
20349;DHT22;10332;50.208;18.988;2024-01-30T15:04:54;24.20;1.00
20349;DHT22;10332;50.208;18.988;2024-01-30T15:07:21;23.40;1.00
20349;DHT22;10332;50.208;18.988;2024-01-30T15:10:02;22.50;1.00
20349;DHT22;10332;50.208;18.988;2024-01-30T15:12:30;21.60;1.00
20349;DHT22;10332;50.208;18.988;2024-01-30T15:14:58;20.80;1.00
20349;DHT22;10332;50.208;18.988;2024-01-30T15:17:25;19.90;1.00
20349;DHT22;10332;50.208;18.988;2024-01-30T15:19:53;19.10;1.00
20349;DHT22;10332;50.208;18.988;2024-01-30T15:22:20;18.20;1.00
20349;DHT22;10332;50.208;18.988;2024-01-30T15:24:48;17.10;1.00
20349;DHT22;10332;50.208;18.988;2024-01-30T15:27:15;16.00;1.00
20349;DHT22;10332;50.208;18.988;2024-01-30T15:29:43;15.00;1.00
20349;DHT22;10332;50.208;18.988;2024-01-30T15:32:10;14.10;1.00
20349;DHT22;10332;50.208;18.988;2024-01-30T15:34:37;13.40;1.00
20349;DHT22;10332;50.208;18.988;2024-01-30T15:37:05;12.90;1.00
20349;DHT22;10332;50.208;18.988;2024-01-30T15:39:33;12.40;1.00
20349;DHT22;10332;50.208;18.988;2024-01-30T15:42:00;12.00;1.00